Race Results for…
SLO Marathon

May 01, 2016 Presented by SLO Marathon and timed by SVE Timing
Participants:
2784
Last Updated:
6/7/2016 8:30:16 AM

Results are preliminary for 3 days.

Stats

Leaderboards

FULL MARATHON

Male - Overall
Bib Name Gun Elapsed Chip Elapsed Pace City Age
1 10 ZACH BITTER 02:36:14 02:36:14 05:57 min/mile DAVIS 30
2 12 BIHAMA VEDASTE 02:40:54 02:40:53 06:08 min/mile SAN JOSE 26
3 9 VAN MCCARTY 02:42:33 02:42:33 06:12 min/mile SAN LUIS OBISPO 45
Female - Overall
Bib Name Gun Elapsed Chip Elapsed Pace City Age
1 466 MAGGIE YOUNT 02:50:06 02:50:05 06:29 min/mile SAN MATEO 32
2 1 CARRI ARRIETA 03:19:52 03:19:51 07:37 min/mile MORENO VALLEY 49
3 285 SHELBY LOWE 03:24:25 03:24:16 07:47 min/mile SAN LUIS OBISPO 26

HALF MARATHON

Male - Overall
Bib Name Gun Elapsed Chip Elapsed Pace City Age
1 60 JOE THORNE 01:10:50 01:10:49 05:24 min/mile GROVER BEACH 32
2 58 BRANDON MESSERLY 01:14:49 01:14:48 05:42 min/mile SAN LUIS OBISPO 22
3 55 JUAN RICARDO JAQUEZ 01:15:47 01:15:46 05:47 min/mile LERDO DURANGO 29
Female - Overall
Bib Name Gun Elapsed Chip Elapsed Pace City Age
1 64 HEATHER MCWHIRTER 01:22:59 01:22:57 06:19 min/mile PACIFIC GROVE 38
2 61 ERIN TRACHT 01:27:56 01:27:55 06:42 min/mile SAN LUIS OBISPO 35
3 53 MAKELY LYON 01:28:30 01:28:28 06:45 min/mile OAKLAND 31

FULL CHALLENGED

Male - Overall
Bib Name Gun Elapsed Chip Elapsed Pace City Age
1 483 ROBERT BROUGHTON 06:28:29 06:28:10 14:48 min/mile SAN LUIS OBISPO 37
2 482 BOB SPISAK 00:00:00 00:00:00 00:00 min/mile APTOS 61

HALF CHALLENGED

Male - Overall
Bib Name Gun Elapsed Chip Elapsed Pace City Age
1 2642 MATTHEW SHUCK 01:35:23 01:35:21 07:16 min/mile ATASCADERO 31

Overall Results

Tip: Slide the results table left and right to view more.
412 entrants …
FULL MARATHON Results
Bib Name City Gun Elapsed Chip Elapsed Pace Division Div Place Gender Gender Place Age Age Place
10 ZACH BITTER DAVIS 02:36:14 02:36:14 05:57 min/mile FULL MARATHON 1 M 1 30 1
12 BIHAMA VEDASTE SAN JOSE 02:40:54 02:40:53 06:08 min/mile FULL MARATHON 2 M 2 26 1
9 VAN MCCARTY SAN LUIS OBISPO 02:42:33 02:42:33 06:12 min/mile FULL MARATHON 3 M 3 45 1
3 DAVID CAMPA SAN LUIS OBISPO 02:47:00 02:47:00 06:22 min/mile FULL MARATHON 4 M 4 41 1
4 RYAN LUCKER BAKERSFIELD 02:48:45 02:48:43 06:26 min/mile FULL MARATHON 5 M 5 29 2
466 MAGGIE YOUNT SAN MATEO 02:50:06 02:50:05 06:29 min/mile FULL MARATHON 6 F 1 32 1
382 BERNARDO SALCIDO GROVER BEACH 02:59:38 02:59:38 06:51 min/mile FULL MARATHON 7 M 6 36 1
2 DAVID BACUS BAKERSFIELD 03:00:28 03:00:27 06:53 min/mile FULL MARATHON 8 M 7 31 2
201 PEPE GONZALEZ PASO ROBLES 03:01:05 03:01:04 06:54 min/mile FULL MARATHON 9 M 8 23 1
380 GREG SAIKI BAKERSFIELD 03:01:57 03:01:56 06:56 min/mile FULL MARATHON 10 M 9 37 2
235 AVI JANSSEN EVANSTON 03:05:59 03:05:57 07:05 min/mile FULL MARATHON 11 M 10 45 2
352 SEAN PRINGLE PISMO BEACH 03:06:54 03:06:52 07:07 min/mile FULL MARATHON 12 M 11 23 2
404 DANIEL SMITH ARROYO GRANDE 03:08:25 03:08:22 07:11 min/mile FULL MARATHON 13 M 12 23 3
101 LEONARDO ADAME SANTA BARBARA 03:08:59 03:08:50 07:12 min/mile FULL MARATHON 14 M 13 20 4
170 RICK DODSON MANHATTAN BEACH 03:10:30 03:10:29 07:16 min/mile FULL MARATHON 15 M 14 52 1
177 ALEX ECONOMOU SAN LUIS OBISPO 03:10:54 03:10:46 07:16 min/mile FULL MARATHON 16 M 15 23 5
474 NEIL MCCARTHY ALAMEDA 03:12:43 03:12:39 07:21 min/mile FULL MARATHON 17 M 16 31 3
274 OSCAR LEON SAN LUIS OBISPO 03:12:55 03:12:45 07:21 min/mile FULL MARATHON 18 M 17 44 2
278 MATT LIST GROVER BEACH 03:13:54 03:13:51 07:23 min/mile FULL MARATHON 19 M 18 43 3
518 WINSTON WIGHT SAN LUIS OBISPO 03:14:46 03:14:43 07:25 min/mile FULL MARATHON 20 M 19 22 6
437 JOHN CONRAD VIANO MARTINEZ 03:17:09 03:17:08 07:31 min/mile FULL MARATHON 21 M 20 25 3
366 BURTON RICHARDS GOLETA 03:17:33 03:17:30 07:32 min/mile FULL MARATHON 22 M 21 36 3
342 VICTOR PEREZ SAN LUIS OBISPO 03:17:58 03:17:56 07:33 min/mile FULL MARATHON 23 M 22 45 3
361 SERGIO QUINTANA ARROYO GRANDE 03:19:04 03:18:59 07:35 min/mile FULL MARATHON 24 M 23 54 2
157 JAVIER CRUZ BAKERSFIELD 03:19:32 03:19:31 07:36 min/mile FULL MARATHON 25 M 24 53 3
1 CARRI ARRIETA MORENO VALLEY 03:19:52 03:19:51 07:37 min/mile FULL MARATHON 26 F 2 49 1
290 CALEB MARTINEZ WINDSOR 03:20:44 03:20:38 07:39 min/mile FULL MARATHON 27 M 25 22 7
525 DAN HERRON 03:21:09 03:21:01 07:40 min/mile FULL MARATHON 28 M 26 31 4
225 DYLAN HUNT SAN LUIS OBISPO 03:21:09 03:21:01 07:40 min/mile FULL MARATHON 29 M 27 29 4
508 BRYAN WENTER WALNUT CREEK 03:21:07 03:21:02 07:40 min/mile FULL MARATHON 30 M 28 43 4
234 DANIEL JANSEN SAN LUIS OBISPO 03:22:17 03:22:13 07:43 min/mile FULL MARATHON 31 M 29 50 4
285 SHELBY LOWE SAN LUIS OBISPO 03:24:25 03:24:16 07:47 min/mile FULL MARATHON 32 F 3 26 1
434 HENRITA VAN WYNGAARDEN THE WOODLANDS 03:24:34 03:24:29 07:48 min/mile FULL MARATHON 33 F 4 46 2
363 KYLE REED LONG BEACH 03:25:47 03:25:45 07:51 min/mile FULL MARATHON 34 M 30 55 1
266 NHIEN-DANG LE WEST SACRAMENTO 03:27:37 03:27:35 07:55 min/mile FULL MARATHON 35 M 31 27 5
494 TRACY LEVEY SANTA MARIA 03:28:02 03:27:58 07:56 min/mile FULL MARATHON 36 F 5 33 2
488 JEREMY DAWSON TEMPLETON 03:28:23 03:28:18 07:57 min/mile FULL MARATHON 37 M 32 37 4
229 BRIAN IVIE PASO ROBLES 03:28:37 03:28:32 07:57 min/mile FULL MARATHON 38 M 33 41 5
303 MICHELE MILAM ROCKLIN 03:29:02 03:28:56 07:58 min/mile FULL MARATHON 39 F 6 47 3
514 TIFFANY MCBROOM APTOS 03:29:25 03:29:23 07:59 min/mile FULL MARATHON 40 F 7 28 2
493 ARKADY HAGOPIAN DAVIS 03:29:39 03:29:34 07:59 min/mile FULL MARATHON 41 M 34 36 5
289 PETER MANN SAN FRANCISCO 03:30:28 03:30:22 08:01 min/mile FULL MARATHON 42 M 35 35 6
253 COURTNEY KOSTRIKIN SAN LUIS OBISPO 03:30:41 03:30:38 08:02 min/mile FULL MARATHON 43 F 8 26 3
410 SAMUEL SPENCE MOUNT VERNON 03:32:13 03:32:07 08:05 min/mile FULL MARATHON 44 M 36 28 6
309 ERIC MOE ORCUTT 03:32:42 03:32:38 08:06 min/mile FULL MARATHON 45 M 37 47 4
371 SEAN ROBINSON PORTLAND 03:33:48 03:33:40 08:09 min/mile FULL MARATHON 46 M 38 33 5
194 PATRICK GARCIA PASADENA 03:33:44 03:33:40 08:09 min/mile FULL MARATHON 47 M 39 28 7
132 YOLANDA BURNS SAN MARTIN 03:34:29 03:34:23 08:10 min/mile FULL MARATHON 48 F 9 43 1
339 ERIC SODERIN LOS OSOS 03:35:00 03:34:35 08:11 min/mile FULL MARATHON 49 M 40 37 7
121 JOSEPH BERRY BAKERSFIELD 03:36:52 03:36:44 08:16 min/mile FULL MARATHON 50 M 41 58 2
412 entrants …

Winners

Tip: Slide the results table left and right to view more.
Overall
Bib Name City Gun Elapsed Chip Elapsed Pace Division Div Place Gender Gender Place Age Age Place
10 ZACH BITTER DAVIS 02:36:14 02:36:14 05:57 min/mile FULL MARATHON 1 M 1 30 1
466 MAGGIE YOUNT SAN MATEO 02:50:06 02:50:05 06:29 min/mile FULL MARATHON 6 F 1 32 1
1 - 18
Bib Name City Gun Elapsed Chip Elapsed Pace Division Div Place Gender Gender Place Age Age Place
228 ZACKARY HYMAS MORRO BAY 05:22:51 05:22:31 12:18 min/mile FULL MARATHON 269 M 171 18 1
257 NANCY KYONG REDWOOD CITY 04:54:10 04:53:56 11:13 min/mile FULL MARATHON 222 F 77 18 1
19 - 24
Bib Name City Gun Elapsed Chip Elapsed Pace Division Div Place Gender Gender Place Age Age Place
201 PEPE GONZALEZ PASO ROBLES 03:01:05 03:01:04 06:54 min/mile FULL MARATHON 9 M 8 23 1
352 SEAN PRINGLE PISMO BEACH 03:06:54 03:06:52 07:07 min/mile FULL MARATHON 12 M 11 23 2
404 DANIEL SMITH ARROYO GRANDE 03:08:25 03:08:22 07:11 min/mile FULL MARATHON 13 M 12 23 3
101 LEONARDO ADAME SANTA BARBARA 03:08:59 03:08:50 07:12 min/mile FULL MARATHON 14 M 13 20 4
177 ALEX ECONOMOU SAN LUIS OBISPO 03:10:54 03:10:46 07:16 min/mile FULL MARATHON 16 M 15 23 5
515 CYNTHIA NAVARRO AUBURN 03:47:37 03:47:28 08:40 min/mile FULL MARATHON 73 F 13 24 1
247 HALEY KENNEDY SAN LUIS OBISPO 03:49:33 03:49:25 08:45 min/mile FULL MARATHON 76 F 15 24 2
420 HANNAH TEITELBAUM WESTLAKE VILLAGE 03:59:09 03:59:03 09:07 min/mile FULL MARATHON 94 F 18 23 3
345 KAYLEIGH PHIPPEN SAN LUIS OBISPO 04:02:30 04:02:20 09:14 min/mile FULL MARATHON 100 F 21 21 4
133 CLAIRE BUSH SAN LUIS OBISPO 04:15:47 04:15:30 09:45 min/mile FULL MARATHON 136 F 37 24 5
25 - 29
Bib Name City Gun Elapsed Chip Elapsed Pace Division Div Place Gender Gender Place Age Age Place
12 BIHAMA VEDASTE SAN JOSE 02:40:54 02:40:53 06:08 min/mile FULL MARATHON 2 M 2 26 1
4 RYAN LUCKER BAKERSFIELD 02:48:45 02:48:43 06:26 min/mile FULL MARATHON 5 M 5 29 2
437 JOHN CONRAD VIANO MARTINEZ 03:17:09 03:17:08 07:31 min/mile FULL MARATHON 21 M 20 25 3
225 DYLAN HUNT SAN LUIS OBISPO 03:21:09 03:21:01 07:40 min/mile FULL MARATHON 29 M 27 29 4
266 NHIEN-DANG LE WEST SACRAMENTO 03:27:37 03:27:35 07:55 min/mile FULL MARATHON 35 M 31 27 5
285 SHELBY LOWE SAN LUIS OBISPO 03:24:25 03:24:16 07:47 min/mile FULL MARATHON 32 F 3 26 1
514 TIFFANY MCBROOM APTOS 03:29:25 03:29:23 07:59 min/mile FULL MARATHON 40 F 7 28 2
253 COURTNEY KOSTRIKIN SAN LUIS OBISPO 03:30:41 03:30:38 08:02 min/mile FULL MARATHON 43 F 8 26 3
419 JULI TAYLOR SAN LUIS OBISPO 03:38:07 03:37:58 08:19 min/mile FULL MARATHON 52 F 10 26 4
313 ANGELA MUELLER STEVENSON RANCH 04:12:22 04:12:05 09:37 min/mile FULL MARATHON 127 F 30 25 5
30 - 34
Bib Name City Gun Elapsed Chip Elapsed Pace Division Div Place Gender Gender Place Age Age Place
10 ZACH BITTER DAVIS 02:36:14 02:36:14 05:57 min/mile FULL MARATHON 1 M 1 30 1
2 DAVID BACUS BAKERSFIELD 03:00:28 03:00:27 06:53 min/mile FULL MARATHON 8 M 7 31 2
474 NEIL MCCARTHY ALAMEDA 03:12:43 03:12:39 07:21 min/mile FULL MARATHON 17 M 16 31 3
525 DAN HERRON 03:21:09 03:21:01 07:40 min/mile FULL MARATHON 28 M 26 31 4
371 SEAN ROBINSON PORTLAND 03:33:48 03:33:40 08:09 min/mile FULL MARATHON 46 M 38 33 5
466 MAGGIE YOUNT SAN MATEO 02:50:06 02:50:05 06:29 min/mile FULL MARATHON 6 F 1 32 1
494 TRACY LEVEY SANTA MARIA 03:28:02 03:27:58 07:56 min/mile FULL MARATHON 36 F 5 33 2
207 SUSIE GUTIERREZ BAKERSFIELD 03:49:29 03:49:21 08:45 min/mile FULL MARATHON 75 F 14 31 3
8 NADIA RUIZ SANTA FE SPRINGS 04:07:19 04:07:14 09:26 min/mile FULL MARATHON 118 F 26 31 4
189 ANJA FOERSCHNER SHERMAN OAKS 04:10:06 04:09:40 09:31 min/mile FULL MARATHON 120 F 27 34 5
35 - 39
Bib Name City Gun Elapsed Chip Elapsed Pace Division Div Place Gender Gender Place Age Age Place
382 BERNARDO SALCIDO GROVER BEACH 02:59:38 02:59:38 06:51 min/mile FULL MARATHON 7 M 6 36 1
380 GREG SAIKI BAKERSFIELD 03:01:57 03:01:56 06:56 min/mile FULL MARATHON 10 M 9 37 2
366 BURTON RICHARDS GOLETA 03:17:33 03:17:30 07:32 min/mile FULL MARATHON 22 M 21 36 3
488 JEREMY DAWSON TEMPLETON 03:28:23 03:28:18 07:57 min/mile FULL MARATHON 37 M 32 37 4
493 ARKADY HAGOPIAN DAVIS 03:29:39 03:29:34 07:59 min/mile FULL MARATHON 41 M 34 36 5
507 BILLIE WENTER WALNUT CREEK 03:39:22 03:39:17 08:22 min/mile FULL MARATHON 56 F 11 38 1
368 LUCINDA RIGBY NORMANHURST 03:59:08 03:59:00 09:07 min/mile FULL MARATHON 93 F 17 39 2
136 LISA CALHOUN CLOVIS 03:59:59 03:59:51 09:09 min/mile FULL MARATHON 95 F 19 38 3
473 HAZEL ANN HATLEY SANTA MARIA 04:01:39 04:01:29 09:13 min/mile FULL MARATHON 97 F 20 38 4
105 CRYSSA ANDERSEN COSTA MESA 04:06:18 04:06:08 09:23 min/mile FULL MARATHON 113 F 25 36 5
40 - 44
Bib Name City Gun Elapsed Chip Elapsed Pace Division Div Place Gender Gender Place Age Age Place
3 DAVID CAMPA SAN LUIS OBISPO 02:47:00 02:47:00 06:22 min/mile FULL MARATHON 4 M 4 41 1
274 OSCAR LEON SAN LUIS OBISPO 03:12:55 03:12:45 07:21 min/mile FULL MARATHON 18 M 17 44 2
278 MATT LIST GROVER BEACH 03:13:54 03:13:51 07:23 min/mile FULL MARATHON 19 M 18 43 3
508 BRYAN WENTER WALNUT CREEK 03:21:07 03:21:02 07:40 min/mile FULL MARATHON 30 M 28 43 4
229 BRIAN IVIE PASO ROBLES 03:28:37 03:28:32 07:57 min/mile FULL MARATHON 38 M 33 41 5
132 YOLANDA BURNS SAN MARTIN 03:34:29 03:34:23 08:10 min/mile FULL MARATHON 48 F 9 43 1
340 TAMI PAULY ARROYO GRANDE 03:52:02 03:51:57 08:51 min/mile FULL MARATHON 81 F 16 41 2
263 LAURAL LARKIN RENO 04:05:56 04:05:50 09:22 min/mile FULL MARATHON 110 F 24 41 3
348 MAUREEN POLACCI MODESTO 04:22:50 04:22:34 10:01 min/mile FULL MARATHON 148 F 41 43 4
249 JOLENE KETTING ARROYO GRANDE 04:26:13 04:25:59 10:09 min/mile FULL MARATHON 156 F 45 43 5
45 - 49
Bib Name City Gun Elapsed Chip Elapsed Pace Division Div Place Gender Gender Place Age Age Place
9 VAN MCCARTY SAN LUIS OBISPO 02:42:33 02:42:33 06:12 min/mile FULL MARATHON 3 M 3 45 1
235 AVI JANSSEN EVANSTON 03:05:59 03:05:57 07:05 min/mile FULL MARATHON 11 M 10 45 2
342 VICTOR PEREZ SAN LUIS OBISPO 03:17:58 03:17:56 07:33 min/mile FULL MARATHON 23 M 22 45 3
309 ERIC MOE ORCUTT 03:32:42 03:32:38 08:06 min/mile FULL MARATHON 45 M 37 47 4
497 BERNIS NICHOLS PASO ROBLES 03:40:05 03:39:51 08:23 min/mile FULL MARATHON 57 M 46 46 5
1 CARRI ARRIETA MORENO VALLEY 03:19:52 03:19:51 07:37 min/mile FULL MARATHON 26 F 2 49 1
434 HENRITA VAN WYNGAARDEN THE WOODLANDS 03:24:34 03:24:29 07:48 min/mile FULL MARATHON 33 F 4 46 2
303 MICHELE MILAM ROCKLIN 03:29:02 03:28:56 07:58 min/mile FULL MARATHON 39 F 6 47 3
433 MICHELE VAN ORNUM FRESNO 03:46:31 03:46:27 08:38 min/mile FULL MARATHON 70 F 12 47 4
294 MIYUKI MATSUMURA WILMINGTON 04:04:17 04:04:09 09:19 min/mile FULL MARATHON 108 F 23 48 5
50 - 54
Bib Name City Gun Elapsed Chip Elapsed Pace Division Div Place Gender Gender Place Age Age Place
170 RICK DODSON MANHATTAN BEACH 03:10:30 03:10:29 07:16 min/mile FULL MARATHON 15 M 14 52 1
361 SERGIO QUINTANA ARROYO GRANDE 03:19:04 03:18:59 07:35 min/mile FULL MARATHON 24 M 23 54 2
157 JAVIER CRUZ BAKERSFIELD 03:19:32 03:19:31 07:36 min/mile FULL MARATHON 25 M 24 53 3
234 DANIEL JANSEN SAN LUIS OBISPO 03:22:17 03:22:13 07:43 min/mile FULL MARATHON 31 M 29 50 4
297 LEE MAXSON CHANDLER 03:42:56 03:42:52 08:30 min/mile FULL MARATHON 62 M 50 54 5
306 BARBARA MILLER PLEASANTON 04:23:19 04:21:38 09:59 min/mile FULL MARATHON 145 F 40 54 1
506 ROBYN WEAVER CHAPEL HILL 04:27:40 04:27:27 10:12 min/mile FULL MARATHON 160 F 47 54 2
250 MARY KING ARROYO GRANDE 04:51:24 04:50:56 11:06 min/mile FULL MARATHON 213 F 73 50 3
147 LAURA CISNEROS FREMONT 05:14:01 05:13:40 11:58 min/mile FULL MARATHON 260 F 95 54 4
206 LISA GUEDES IRVINE 05:26:50 05:26:22 12:27 min/mile FULL MARATHON 277 F 101 52 5
55 - 59
Bib Name City Gun Elapsed Chip Elapsed Pace Division Div Place Gender Gender Place Age Age Place
363 KYLE REED LONG BEACH 03:25:47 03:25:45 07:51 min/mile FULL MARATHON 34 M 30 55 1
121 JOSEPH BERRY BAKERSFIELD 03:36:52 03:36:44 08:16 min/mile FULL MARATHON 50 M 41 58 2
150 RANDY CORK CHAPEL HILL 03:41:45 03:41:41 08:27 min/mile FULL MARATHON 61 M 49 56 3
162 SCOTT DAWSON SAN LUIS OBISPO 03:51:25 03:51:15 08:49 min/mile FULL MARATHON 78 M 62 59 4
115 TOM BARR MISSION VIEJO 04:05:39 04:05:32 09:22 min/mile FULL MARATHON 109 M 84 56 5
444 JEAN WATSON CHANDLER 04:02:40 04:02:33 09:15 min/mile FULL MARATHON 101 F 22 57 1
178 CATHY EDWARDS LOS BANOS 04:56:07 04:55:41 11:17 min/mile FULL MARATHON 230 F 80 57 2
118 MARY BAUTISTA JAMESTOWN 05:15:25 05:15:05 12:01 min/mile FULL MARATHON 263 F 96 57 3
425 MARIA TORIBIO TEMPLETON 05:26:06 05:25:42 12:25 min/mile FULL MARATHON 275 F 99 55 4
231 LORRAINE JACOBS SIERRA VISTA 05:26:49 05:26:23 12:27 min/mile FULL MARATHON 278 F 102 58 5
60 - 64
Bib Name City Gun Elapsed Chip Elapsed Pace Division Div Place Gender Gender Place Age Age Place
305 SCOTT MILLER PLEASANTON 04:12:59 04:11:19 09:35 min/mile FULL MARATHON 125 M 95 61 1
354 FERNANDO PUENTE RALEIGH 04:26:46 04:26:36 10:10 min/mile FULL MARATHON 158 M 110 62 2
521 MICHAEL BRUMMER 04:41:39 04:41:13 10:44 min/mile FULL MARATHON 189 M 124 61 3
422 MUAMMER JOSEPH TEMEL BAKERSFIELD 04:43:44 04:43:42 10:49 min/mile FULL MARATHON 201 M 133 60 4
319 BRUCE NEUSCHWANDER SAN LUIS OBISPO 04:51:30 04:51:22 11:07 min/mile FULL MARATHON 216 M 140 64 5
295 BLYTH MATSUOKA TORRANCE 04:26:27 04:26:09 10:09 min/mile FULL MARATHON 157 F 46 61 1
335 SHERYL OSBORNE SIMI VALLEY 04:40:06 04:39:53 10:40 min/mile FULL MARATHON 185 F 61 61 2
353 CAROL PUENTE RALEIGH 05:06:13 05:05:52 11:40 min/mile FULL MARATHON 247 F 89 60 3
103 MYRNA ALVAREZ AVILA BEACH 05:11:56 05:11:29 11:53 min/mile FULL MARATHON 257 F 94 63 4
65 - 69
Bib Name City Gun Elapsed Chip Elapsed Pace Division Div Place Gender Gender Place Age Age Place
375 FRANCISCO ROSITO GLENDALE 05:18:50 05:18:43 12:09 min/mile FULL MARATHON 267 M 169 66 1
198 JASON GILLESPIE GROVER BEACH 06:35:03 06:34:42 15:03 min/mile FULL MARATHON 324 M 195 66 2
414 JAMES SULLENBERGER ARROYO GRANDE 06:51:38 06:50:53 15:40 min/mile FULL MARATHON 334 M 198 65 3
179 CAROL ELLIOTT SAN CARLOS 05:59:35 05:59:10 13:42 min/mile FULL MARATHON 309 F 118 68 1
70 - 74
Bib Name City Gun Elapsed Chip Elapsed Pace Division Div Place Gender Gender Place Age Age Place
384 MELVIN SANDVIG AGOURA HILLS 04:43:13 04:42:16 10:46 min/mile FULL MARATHON 196 M 128 70 1
233 LARRY JAMISON SAN LUIS OBISPO 05:46:35 05:46:20 13:13 min/mile FULL MARATHON 295 M 184 73 2
246 BOB KEEFFE ARROYO GRANDE 05:52:13 05:51:39 13:25 min/mile FULL MARATHON 301 M 187 70 3
237 DONALD JOHNSTON CLOVIS 06:48:09 06:47:50 15:33 min/mile FULL MARATHON 331 M 197 71 4
75 - 79
Bib Name City Gun Elapsed Chip Elapsed Pace Division Div Place Gender Gender Place Age Age Place
512 LES MARTIN SAN FRANCISCO 05:09:36 05:09:08 11:47 min/mile FULL MARATHON 253 M 160 75 1
80 - 99
Bib Name City Gun Elapsed Chip Elapsed Pace Division Div Place Gender Gender Place Age Age Place

Race Info

Participants:
2784
Last Updated:
6/7/2016 8:30:16 AM

Results are preliminary for 3 days.

Tip: Slide the results table left and right to view more.

Search for Name, Bib, City, State or Team
in the field above… by clicking the icon below…

Race Statistics

FULL MARATHON - 339


Male
Total Finishers Avg Pace
201 10:04

Female
Total Finishers Avg Pace
138 11:10

HALF MARATHON - 1980


Male
Total Finishers Avg Pace
666 10:01

Female
Total Finishers Avg Pace
1314 11:26

FULL CHALLENGED - 1


Male
Total Finishers Avg Pace
1 14:48

Female
Total Finishers Avg Pace
0 00:00

HALF CHALLENGED - 1


Male
Total Finishers Avg Pace
1 07:16

Female
Total Finishers Avg Pace
0 00:00
This event was timed using RM Timing Systems
Take control of your event

Have a question or need to make a correction?

Submit a Result Correction